Tingis — CNA4486 — position and weather

sailwx.info

Track history (hours):
 
Tides and Currents Weather Stations Pressure Air Temp Water Temp Dewpoint Dewpoint Depression Visibility Wind Speed Wind Dir Waves Ship Positions

Tingis

Last reported at 2017-Dec-15 05:35 UTC. Time now 2017-Dec-16 03:19 UTC.
Position N 35°56' W 005°47'.

Length 119 m; draft 6.2 m.

Type: Ship (hazmat cat A). MMSI: 242924000.

Date/timePositionNaut miles runAvg speedWind from/ knotsBaromVisibWave heightAir tempDewpointWater temp
2017-Dec-15 05:35N 35°56' W 005°47'8 9.5
2017-Dec-15 04:43N 35°57' W 005°37'2 8.5
2017-Dec-15 04:30N 35°57' W 005°35'4 8.2
2017-Dec-15 04:01N 35°59' W 005°30'13 8.6
2017-Dec-15 02:31N 36°04' W 005°15'219 5.3
2017-Dec-13 09:19N 37°33' W 001°05'175 5.3
2017-Dec-12 00:28N 36°06' W 004°16'714.5
2017-Dec-11 23:59N 36°05' W 004°24'714.9
2017-Dec-11 23:30N 36°04' W 004°33'713.0
2017-Dec-11 22:59N 36°03' W 004°41'613.4
2017-Dec-11 22:30N 36°02' W 004°49'713.2
2017-Dec-11 22:00N 36°01' W 004°57'816.3
2017-Dec-11 21:30N 35°60' W 005°07'816.4
2017-Dec-11 21:01N 35°59' W 005°17'815.8
2017-Dec-11 20:31N 35°58' W 005°27'714.5
2017-Dec-11 20:00N 35°56' W 005°35'612.9
2017-Dec-11 19:30N 35°54' W 005°43'611.9
2017-Dec-11 19:00N 35°52' W 005°50'611.9
2017-Dec-11 18:30N 35°51' W 005°57'612.1
2017-Dec-11 18:00N 35°46' W 006°02'612.0
2017-Dec-11 17:30N 35°41' W 006°06'611.8
2017-Dec-11 17:00N 35°36' W 006°09'  
Track history (hours):
 
Tides and Currents Weather Stations Pressure Air Temp Water Temp Dewpoint Dewpoint Depression Visibility Wind Speed Wind Dir Waves Ship Positions

Tingis

Last reported at 2017-Dec-15 05:35 UTC. Time now 2017-Dec-16 03:19 UTC.
Position N 35°56' W 005°47'.

Length 119 m; draft 6.2 m.

Type: Ship (hazmat cat A). MMSI: 242924000.

Date/timePositionNaut miles runAvg speedWind from/ knotsBaromVisibWave heightAir tempDewpointWater temp
2017-Dec-15 05:35N 35°56' W 005°47'8 9.5
2017-Dec-15 04:43N 35°57' W 005°37'2 8.5
2017-Dec-15 04:30N 35°57' W 005°35'4 8.2
2017-Dec-15 04:01N 35°59' W 005°30'13 8.6
2017-Dec-15 02:31N 36°04' W 005°15'219 5.3
2017-Dec-13 09:19N 37°33' W 001°05'175 5.3
2017-Dec-12 00:28N 36°06' W 004°16'714.5
2017-Dec-11 23:59N 36°05' W 004°24'714.9
2017-Dec-11 23:30N 36°04' W 004°33'713.0
2017-Dec-11 22:59N 36°03' W 004°41'613.4
2017-Dec-11 22:30N 36°02' W 004°49'713.2
2017-Dec-11 22:00N 36°01' W 004°57'816.3
2017-Dec-11 21:30N 35°60' W 005°07'816.4
2017-Dec-11 21:01N 35°59' W 005°17'815.8
2017-Dec-11 20:31N 35°58' W 005°27'714.5
2017-Dec-11 20:00N 35°56' W 005°35'612.9
2017-Dec-11 19:30N 35°54' W 005°43'611.9
2017-Dec-11 19:00N 35°52' W 005°50'611.9
2017-Dec-11 18:30N 35°51' W 005°57'612.1
2017-Dec-11 18:00N 35°46' W 006°02'612.0
2017-Dec-11 17:30N 35°41' W 006°06'611.8
2017-Dec-11 17:00N 35°36' W 006°09'  

Dump ship's entire track history